createdAt,value
2022-10-16T00:01:00.206Z,0.80
2022-10-16T00:03:30.419Z,1.00
2022-10-16T00:06:01.373Z,0.93
2022-10-16T00:08:30.450Z,1.07
2022-10-16T00:11:04.572Z,0.90
2022-10-16T00:13:33.559Z,0.80
2022-10-16T00:16:03.309Z,0.80
2022-10-16T00:18:32.097Z,0.80
2022-10-16T00:21:04.857Z,1.00
2022-10-16T00:23:53.599Z,1.00
2022-10-16T00:26:23.879Z,0.90
2022-10-16T00:28:53.081Z,1.10
2022-10-16T00:31:23.093Z,1.40
2022-10-16T00:33:52.017Z,0.97
2022-10-16T00:36:21.898Z,1.20
2022-10-16T00:38:53.848Z,0.90
2022-10-16T00:41:24.921Z,1.10
2022-10-16T00:43:55.003Z,1.00
2022-10-16T00:46:26.091Z,1.10
2022-10-16T00:48:58.953Z,0.93
2022-10-16T00:51:32.750Z,0.90
2022-10-16T00:54:01.683Z,0.83
2022-10-16T00:56:31.223Z,0.97
2022-10-16T00:59:00.383Z,1.10
2022-10-16T01:01:28.539Z,1.00
2022-10-16T01:03:56.574Z,1.33
2022-10-16T01:06:30.528Z,1.03
2022-10-16T01:09:11.349Z,0.97
2022-10-16T01:11:50.577Z,1.03
2022-10-16T01:14:30.471Z,1.13
2022-10-16T01:17:03.845Z,1.07
2022-10-16T01:19:46.403Z,1.13
2022-10-16T01:22:15.659Z,1.00
2022-10-16T01:24:50.192Z,1.20
2022-10-16T01:27:23.383Z,1.10
2022-10-16T01:29:55.249Z,1.07
2022-10-16T01:32:30.854Z,1.30
2022-10-16T01:35:04.011Z,1.60
2022-10-16T01:37:37.304Z,1.90
2022-10-16T01:40:10.726Z,2.50
2022-10-16T01:42:43.983Z,2.23
2022-10-16T01:45:15.732Z,2.47
2022-10-16T01:47:44.995Z,2.53
2022-10-16T01:50:16.173Z,3.20
2022-10-16T01:52:48.513Z,3.00
2022-10-16T01:55:22.261Z,3.43
2022-10-16T01:57:53.785Z,3.53
2022-10-16T02:00:24.470Z,3.60
2022-10-16T02:02:56.089Z,3.93
2022-10-16T02:05:28.736Z,3.90
2022-10-16T02:07:58.499Z,4.10
2022-10-16T02:10:32.224Z,4.17
2022-10-16T02:13:08.060Z,4.87
2022-10-16T02:15:36.169Z,4.57
2022-10-16T02:18:04.707Z,5.30
2022-10-16T02:20:38.350Z,5.53
2022-10-16T02:23:06.725Z,5.07
2022-10-16T02:25:44.892Z,4.67
2022-10-16T02:28:18.613Z,4.90
2022-10-16T02:30:50.032Z,5.60
2022-10-16T02:33:21.153Z,4.97
2022-10-16T02:35:51.588Z,4.60
2022-10-16T02:38:20.927Z,4.77
2022-10-16T02:40:49.096Z,4.80
2022-10-16T02:43:18.747Z,4.97
2022-10-16T02:45:46.769Z,4.60
2022-10-16T02:48:15.800Z,4.17
2022-10-16T02:50:43.842Z,3.83
2022-10-16T02:53:11.860Z,3.40
2022-10-16T02:55:39.906Z,4.50
2022-10-16T02:58:08.088Z,4.43
2022-10-16T03:00:37.479Z,4.03
2022-10-16T03:03:05.508Z,4.10
2022-10-16T03:05:33.529Z,3.87
2022-10-16T03:08:01.684Z,4.00
2022-10-16T03:10:29.880Z,3.90
2022-10-16T03:12:57.893Z,4.20
2022-10-16T03:15:26.846Z,4.10
2022-10-16T03:17:56.243Z,4.43
2022-10-16T03:20:24.375Z,3.33
2022-10-16T03:22:52.470Z,3.47
2022-10-16T03:25:20.711Z,3.97
2022-10-16T03:27:48.784Z,3.67
2022-10-16T03:30:17.419Z,4.00
2022-10-16T03:32:46.624Z,3.70
2022-10-16T03:35:16.155Z,3.40
2022-10-16T03:37:44.500Z,3.47
2022-10-16T03:40:12.981Z,5.13
2022-10-16T03:42:41.141Z,3.50
2022-10-16T03:45:09.771Z,3.33
2022-10-16T03:47:38.197Z,3.87
2022-10-16T03:50:07.416Z,3.70
2022-10-16T03:52:37.281Z,3.93
2022-10-16T03:55:05.730Z,3.60
2022-10-16T03:57:33.784Z,3.57
2022-10-16T04:00:02.011Z,3.10
2022-10-16T04:02:40.149Z,3.00
2022-10-16T04:05:09.055Z,2.87
2022-10-16T04:07:38.723Z,2.63
2022-10-16T04:10:07.777Z,3.23
2022-10-16T04:12:35.771Z,2.63
2022-10-16T04:15:04.082Z,3.07
2022-10-16T04:17:32.106Z,3.30
2022-10-16T04:20:00.120Z,3.20
2022-10-16T04:25:02.428Z,2.67
2022-10-16T04:27:32.183Z,3.00
2022-10-16T04:30:00.233Z,2.77
2022-10-16T04:32:28.896Z,3.13
2022-10-16T04:34:56.905Z,3.17
2022-10-16T04:37:27.189Z,3.00
2022-10-16T04:39:56.127Z,2.70
2022-10-16T04:42:25.669Z,2.53
2022-10-16T04:44:54.048Z,3.00
2022-10-16T04:47:22.108Z,3.07
2022-10-16T04:49:50.111Z,3.10
2022-10-16T04:52:18.214Z,3.00
2022-10-16T04:54:46.422Z,3.20
2022-10-16T04:57:14.501Z,3.00
2022-10-16T04:59:43.892Z,3.17
2022-10-16T05:02:11.958Z,3.90
2022-10-16T05:04:39.969Z,3.17
2022-10-16T05:07:08.056Z,3.17
2022-10-16T05:09:39.233Z,2.80
2022-10-16T05:12:07.259Z,2.83
2022-10-16T05:14:35.325Z,3.20
2022-10-16T05:17:04.789Z,2.60
2022-10-16T05:19:32.844Z,1.93
2022-10-16T05:22:00.953Z,2.23
2022-10-16T05:24:28.957Z,1.87
2022-10-16T05:26:57.131Z,2.40
2022-10-16T05:29:25.220Z,1.77
2022-10-16T05:31:54.221Z,2.17
2022-10-16T05:34:23.795Z,2.03
2022-10-16T05:36:52.042Z,1.90
2022-10-16T05:39:20.585Z,1.83
2022-10-16T05:41:48.757Z,2.00
2022-10-16T05:44:16.911Z,1.80
2022-10-16T05:46:45.144Z,1.93
2022-10-16T05:49:13.154Z,2.20
2022-10-16T05:51:43.213Z,2.47
2022-10-16T05:54:11.390Z,2.20
2022-10-16T05:56:39.395Z,2.10
2022-10-16T05:59:07.938Z,1.90
2022-10-16T06:01:36.418Z,2.00
2022-10-16T06:04:05.108Z,1.70
2022-10-16T06:06:33.238Z,2.10
2022-10-16T06:09:02.651Z,1.90
2022-10-16T06:11:32.812Z,1.80
2022-10-16T06:14:03.687Z,1.60
2022-10-16T06:16:31.774Z,2.00
2022-10-16T06:19:00.259Z,2.20
2022-10-16T06:21:30.236Z,1.90
2022-10-16T06:23:59.026Z,2.50
2022-10-16T06:26:30.072Z,3.90
2022-10-16T06:29:00.319Z,2.33
2022-10-16T06:31:31.576Z,2.00
2022-10-16T06:34:00.121Z,2.50
2022-10-16T06:36:28.339Z,1.83
2022-10-16T06:38:56.889Z,1.80
2022-10-16T06:41:25.249Z,1.80
2022-10-16T06:43:54.613Z,1.60
2022-10-16T06:46:24.744Z,1.90
2022-10-16T06:48:52.795Z,1.87
2022-10-16T06:51:22.748Z,1.50
2022-10-16T06:54:07.928Z,2.00
2022-10-16T06:56:36.355Z,2.07
2022-10-16T06:59:05.699Z,1.50
2022-10-16T07:01:34.941Z,1.83
2022-10-16T07:04:03.919Z,1.60
2022-10-16T07:06:34.582Z,1.77
2022-10-16T07:09:05.523Z,1.77
2022-10-16T07:11:33.812Z,1.80
2022-10-16T07:14:01.803Z,1.77
2022-10-16T07:16:32.980Z,1.70
2022-10-16T07:19:03.045Z,1.43
2022-10-16T07:21:36.336Z,1.47
2022-10-16T07:24:06.607Z,1.87
2022-10-16T07:26:36.681Z,1.80
2022-10-16T07:29:05.469Z,1.93
2022-10-16T07:31:35.088Z,1.57
2022-10-16T07:34:03.166Z,1.70
2022-10-16T07:36:31.213Z,1.47
2022-10-16T07:39:00.381Z,1.40
2022-10-16T07:41:29.792Z,2.20
2022-10-16T07:44:00.890Z,1.93
2022-10-16T07:46:29.558Z,1.93
2022-10-16T07:48:59.117Z,1.40
2022-10-16T07:51:28.510Z,1.63
2022-10-16T07:53:56.903Z,1.63
2022-10-16T07:56:25.093Z,2.00
2022-10-16T07:58:53.909Z,1.70
2022-10-16T08:01:22.166Z,2.17
2022-10-16T08:03:51.768Z,2.53
2022-10-16T08:06:26.672Z,1.70
2022-10-16T08:08:56.515Z,1.73
2022-10-16T08:11:25.292Z,2.07
2022-10-16T08:13:53.401Z,2.17
2022-10-16T08:16:22.102Z,2.30
2022-10-16T08:18:52.162Z,2.10
2022-10-16T08:21:24.001Z,2.30
2022-10-16T08:23:56.723Z,1.83
2022-10-16T08:26:28.011Z,1.83
2022-10-16T08:28:57.109Z,2.00
2022-10-16T08:31:27.030Z,2.63
2022-10-16T08:33:55.195Z,1.73
2022-10-16T08:36:24.603Z,2.20
2022-10-16T08:38:55.144Z,1.70
2022-10-16T08:41:35.127Z,2.23
2022-10-16T08:44:22.988Z,1.50
2022-10-16T08:47:01.637Z,2.17
2022-10-16T08:49:29.817Z,2.20
2022-10-16T08:52:01.122Z,2.20
2022-10-16T08:54:34.886Z,2.27
2022-10-16T08:57:10.943Z,2.70
2022-10-16T08:59:39.072Z,2.47
2022-10-16T09:02:22.467Z,1.87
2022-10-16T09:05:00.489Z,2.30
2022-10-16T09:07:35.917Z,1.97
2022-10-16T09:10:16.008Z,2.07
2022-10-16T09:12:54.738Z,2.20
2022-10-16T09:15:30.928Z,2.20
2022-10-16T09:18:06.180Z,2.30
2022-10-16T09:20:44.359Z,2.20
2022-10-16T09:23:20.381Z,2.30
2022-10-16T09:25:51.072Z,3.10
2022-10-16T09:28:20.781Z,2.80
2022-10-16T09:30:50.763Z,2.60
2022-10-16T09:33:21.626Z,2.90
2022-10-16T09:35:52.128Z,2.67
2022-10-16T09:38:27.308Z,2.50
2022-10-16T09:41:02.433Z,2.80
2022-10-16T09:43:37.125Z,2.50
2022-10-16T09:46:07.761Z,2.90
2022-10-16T09:48:39.155Z,2.77
2022-10-16T09:51:09.134Z,3.00
2022-10-16T09:53:44.035Z,2.60
2022-10-16T09:56:14.743Z,2.50
2022-10-16T09:58:51.245Z,9.40
2022-10-16T10:01:19.459Z,2.80
2022-10-16T10:03:48.727Z,3.10
2022-10-16T10:06:21.196Z,3.17
2022-10-16T10:09:06.985Z,2.63
2022-10-16T10:11:46.660Z,2.60
2022-10-16T10:14:30.617Z,2.83
2022-10-16T10:17:13.904Z,2.93
2022-10-16T10:19:44.177Z,2.57
2022-10-16T10:22:23.782Z,2.50
2022-10-16T10:25:43.377Z,3.17
2022-10-16T10:28:22.058Z,2.53
2022-10-16T10:31:00.158Z,2.67
2022-10-16T10:33:36.527Z,3.10
2022-10-16T10:36:18.796Z,2.60
2022-10-16T10:38:53.740Z,2.67
2022-10-16T10:41:51.194Z,2.43
2022-10-16T10:44:32.588Z,2.07
2022-10-16T10:47:13.529Z,2.67
2022-10-16T10:49:56.396Z,3.13
2022-10-16T10:52:40.481Z,2.47
2022-10-16T10:55:17.915Z,2.23
2022-10-16T10:58:06.567Z,2.60
2022-10-16T11:00:44.967Z,2.77
2022-10-16T11:03:28.255Z,2.87
2022-10-16T11:06:06.654Z,2.53
2022-10-16T11:08:37.890Z,2.70
2022-10-16T11:11:11.910Z,2.13
2022-10-16T11:13:46.063Z,3.20
2022-10-16T11:16:20.641Z,2.47
2022-10-16T11:18:56.626Z,2.20
2022-10-16T11:21:30.306Z,2.50
2022-10-16T11:24:03.754Z,1.70
2022-10-16T11:26:37.624Z,1.80
2022-10-16T11:29:14.190Z,1.67
2022-10-16T11:31:46.632Z,2.27
2022-10-16T11:34:23.062Z,2.40
2022-10-16T11:36:57.739Z,2.20
2022-10-16T11:39:28.783Z,1.60
2022-10-16T11:42:03.165Z,1.83
2022-10-16T11:44:46.445Z,1.93
2022-10-16T11:47:53.946Z,1.77
2022-10-16T11:50:24.326Z,2.00
2022-10-16T11:53:00.073Z,2.00
2022-10-16T11:55:32.845Z,2.00
2022-10-16T11:58:05.326Z,2.10
2022-10-16T12:00:42.018Z,1.83
2022-10-16T12:03:20.112Z,1.67
2022-10-16T12:06:03.331Z,1.73
2022-10-16T12:08:32.027Z,1.70
2022-10-16T12:11:09.888Z,1.60
2022-10-16T12:13:39.545Z,2.00
2022-10-16T12:16:22.680Z,1.70
2022-10-16T12:18:51.450Z,1.93
2022-10-16T12:21:33.685Z,1.73
2022-10-16T12:24:04.383Z,1.50
2022-10-16T12:26:34.786Z,1.50
2022-10-16T12:29:16.438Z,2.23
2022-10-16T12:31:57.519Z,2.00
2022-10-16T12:34:29.443Z,2.13
2022-10-16T12:36:58.592Z,2.03
2022-10-16T12:39:29.485Z,2.20
2022-10-16T12:42:04.807Z,2.50
2022-10-16T12:44:37.454Z,2.27
2022-10-16T12:47:07.598Z,2.20
2022-10-16T12:49:40.804Z,1.90
2022-10-16T12:52:29.285Z,2.93
2022-10-16T12:55:00.190Z,1.77
2022-10-16T12:57:41.496Z,1.80
2022-10-16T13:00:20.734Z,1.80
2022-10-16T13:03:18.814Z,2.00
2022-10-16T13:06:00.746Z,1.77
2022-10-16T13:08:45.412Z,1.50
2022-10-16T13:11:22.008Z,1.73
2022-10-16T13:14:14.063Z,1.63
2022-10-16T13:16:56.045Z,1.87
2022-10-16T13:19:35.281Z,3.00
2022-10-16T13:22:08.359Z,2.20
2022-10-16T13:24:50.803Z,2.70
2022-10-16T13:27:31.320Z,1.43
2022-10-16T13:30:11.421Z,2.17
2022-10-16T13:32:40.521Z,1.83
2022-10-16T13:35:23.381Z,5.40
2022-10-16T13:37:51.490Z,3.80
2022-10-16T13:40:24.588Z,1.70
2022-10-16T13:42:55.083Z,3.20
2022-10-16T13:45:24.765Z,1.50
2022-10-16T13:48:03.980Z,1.23
2022-10-16T13:50:33.968Z,1.77
2022-10-16T13:53:08.665Z,1.53
2022-10-16T13:55:36.775Z,1.60
2022-10-16T13:58:14.504Z,1.57
2022-10-16T14:00:54.897Z,1.83
2022-10-16T14:03:23.208Z,1.50
2022-10-16T14:05:54.783Z,1.37
2022-10-16T14:08:25.446Z,1.27
2022-10-16T14:10:56.193Z,1.40
2022-10-16T14:13:32.545Z,1.23
2022-10-16T14:16:03.424Z,1.70
2022-10-16T14:18:33.527Z,1.30
2022-10-16T14:21:13.448Z,1.20
2022-10-16T14:23:43.319Z,1.97
2022-10-16T14:26:16.727Z,1.80
2022-10-16T14:28:50.572Z,1.30
2022-10-16T14:31:31.841Z,1.80
2022-10-16T14:34:00.712Z,1.23
2022-10-16T14:36:31.517Z,1.50
2022-10-16T14:39:03.659Z,1.60
2022-10-16T14:41:32.851Z,2.13
2022-10-16T14:44:05.735Z,2.03
2022-10-16T14:46:37.990Z,1.67
2022-10-16T14:49:17.722Z,1.50
2022-10-16T14:51:47.183Z,1.50
2022-10-16T14:54:15.955Z,1.37
2022-10-16T14:56:48.883Z,2.10
2022-10-16T14:59:20.460Z,1.67
2022-10-16T15:01:49.333Z,1.77
2022-10-16T15:04:18.686Z,1.53
2022-10-16T15:06:48.195Z,1.43
2022-10-16T15:09:16.269Z,4.60
2022-10-16T15:11:44.907Z,1.67
2022-10-16T15:14:25.011Z,1.60
2022-10-16T15:16:53.273Z,1.73
2022-10-16T15:19:21.524Z,1.50
2022-10-16T15:21:51.781Z,1.57
2022-10-16T15:24:21.559Z,1.57
2022-10-16T15:26:50.298Z,1.60
2022-10-16T15:29:18.409Z,2.10
2022-10-16T15:31:48.418Z,2.30
2022-10-16T15:34:17.135Z,1.67
2022-10-16T15:36:45.179Z,1.73
2022-10-16T15:39:16.960Z,2.03
2022-10-16T15:41:46.427Z,2.23
2022-10-16T15:44:14.448Z,2.20
2022-10-16T15:46:42.432Z,4.50
2022-10-16T15:49:11.528Z,3.30
2022-10-16T15:51:41.282Z,2.73
2022-10-16T15:54:09.761Z,3.00
2022-10-16T15:56:39.108Z,2.23
2022-10-16T15:59:07.616Z,2.00
2022-10-16T16:01:37.223Z,2.40
2022-10-16T16:04:11.301Z,2.10
2022-10-16T16:06:53.897Z,2.47
2022-10-16T16:09:27.502Z,2.80
2022-10-16T16:11:57.109Z,2.50
2022-10-16T16:14:27.019Z,1.93
2022-10-16T16:16:55.428Z,2.93
2022-10-16T16:19:23.565Z,2.30
2022-10-16T16:21:52.802Z,2.07
2022-10-16T16:24:21.113Z,2.40
2022-10-16T16:26:49.154Z,2.40
2022-10-16T16:29:18.599Z,2.83
2022-10-16T16:31:48.017Z,2.57
2022-10-16T16:34:16.247Z,3.07
2022-10-16T16:36:44.324Z,3.00
2022-10-16T16:39:12.621Z,2.97
2022-10-16T16:41:40.703Z,3.60
2022-10-16T16:44:11.379Z,3.70
2022-10-16T16:46:41.024Z,3.57
2022-10-16T16:49:10.060Z,2.47
2022-10-16T16:51:40.511Z,2.03
2022-10-16T16:54:09.150Z,2.30
2022-10-16T16:56:37.347Z,2.50
2022-10-16T16:59:05.763Z,2.73
2022-10-16T17:01:34.021Z,2.40
2022-10-16T17:04:03.515Z,2.87
2022-10-16T17:06:32.176Z,2.50
2022-10-16T17:09:00.708Z,2.27
2022-10-16T17:11:29.364Z,2.53
2022-10-16T17:13:59.291Z,2.30
2022-10-16T17:16:29.754Z,2.30
2022-10-16T17:19:00.266Z,2.20
2022-10-16T17:21:30.622Z,2.40
2022-10-16T17:23:58.912Z,2.60
2022-10-16T17:26:27.796Z,2.60
2022-10-16T17:28:57.826Z,2.47
2022-10-16T17:31:28.136Z,3.23
2022-10-16T17:33:56.845Z,3.03
2022-10-16T17:36:25.537Z,3.47
2022-10-16T17:38:54.900Z,4.27
2022-10-16T17:41:24.979Z,3.80
2022-10-16T17:43:53.519Z,4.37
2022-10-16T17:46:23.545Z,3.57
2022-10-16T17:48:54.309Z,4.30
2022-10-16T17:51:24.769Z,3.70
2022-10-16T17:53:55.903Z,3.93
2022-10-16T17:56:25.218Z,3.23
2022-10-16T17:58:55.273Z,2.90
2022-10-16T18:01:25.754Z,2.97
2022-10-16T18:03:56.076Z,3.17
2022-10-16T18:06:24.933Z,2.83
2022-10-16T18:08:55.268Z,2.60
2022-10-16T18:11:24.082Z,2.70
2022-10-16T18:13:53.976Z,2.10
2022-10-16T18:16:22.427Z,2.70
2022-10-16T18:18:50.682Z,3.10
2022-10-16T18:21:20.272Z,2.70
2022-10-16T18:23:51.799Z,2.10
2022-10-16T18:26:22.748Z,2.33
2022-10-16T18:28:53.533Z,2.33
2022-10-16T18:31:22.981Z,2.23
2022-10-16T18:33:51.604Z,3.87
2022-10-16T18:36:22.485Z,2.20
2022-10-16T18:38:51.229Z,2.97
2022-10-16T18:41:21.359Z,3.07
2022-10-16T18:43:49.758Z,3.47
2022-10-16T18:46:19.542Z,3.43
2022-10-16T18:48:48.210Z,4.10
2022-10-16T18:51:18.500Z,3.10
2022-10-16T18:53:48.160Z,2.63
2022-10-16T18:56:41.331Z,3.07
2022-10-16T18:59:10.555Z,3.47
2022-10-16T19:01:39.535Z,4.57
2022-10-16T19:04:10.146Z,5.07
2022-10-16T19:06:39.872Z,5.73
2022-10-16T19:09:08.454Z,4.70
2022-10-16T19:11:40.613Z,4.70
2022-10-16T19:14:11.212Z,4.57
2022-10-16T19:16:42.680Z,4.10
2022-10-16T19:19:13.261Z,4.10
2022-10-16T19:21:41.631Z,4.53
2022-10-16T19:24:13.514Z,3.90
2022-10-16T19:26:42.371Z,3.23
2022-10-16T19:29:12.385Z,2.80
2022-10-16T19:31:40.854Z,2.80
2022-10-16T19:34:09.755Z,3.33
2022-10-16T19:36:39.955Z,3.03
2022-10-16T19:39:09.470Z,3.20
2022-10-16T19:41:38.224Z,3.40
2022-10-16T19:44:08.519Z,2.80
2022-10-16T19:46:38.583Z,2.90
2022-10-16T19:49:08.588Z,2.93
2022-10-16T19:51:37.756Z,2.27
2022-10-16T19:54:08.462Z,2.03
2022-10-16T19:56:37.363Z,2.43
2022-10-16T19:59:06.904Z,2.40
2022-10-16T20:01:36.697Z,2.30
2022-10-16T20:04:07.235Z,2.47
2022-10-16T20:06:35.424Z,2.80
2022-10-16T20:09:22.137Z,2.17
2022-10-16T20:11:50.269Z,2.10
2022-10-16T20:14:18.388Z,2.90
2022-10-16T20:16:48.115Z,2.80
2022-10-16T20:19:16.134Z,2.73
2022-10-16T20:21:44.557Z,2.97
2022-10-16T20:24:12.652Z,3.40
2022-10-16T20:26:40.755Z,3.20
2022-10-16T20:29:08.926Z,3.10
2022-10-16T20:31:37.131Z,3.30
2022-10-16T20:34:08.826Z,2.20
2022-10-16T20:36:38.254Z,3.17
2022-10-16T20:39:07.217Z,2.47
2022-10-16T20:41:35.951Z,2.97
2022-10-16T20:44:04.965Z,2.50
2022-10-16T20:46:33.388Z,2.10
2022-10-16T20:49:10.739Z,2.67
2022-10-16T20:51:49.678Z,2.87
2022-10-16T20:54:18.049Z,2.90
2022-10-16T20:56:46.059Z,2.83
2022-10-16T20:59:14.450Z,2.53
2022-10-16T21:01:42.658Z,2.33
2022-10-16T21:04:10.919Z,2.60
2022-10-16T21:06:40.279Z,2.53
2022-10-16T21:09:10.126Z,2.67
2022-10-16T21:11:38.783Z,2.30
2022-10-16T21:14:08.821Z,2.80
2022-10-16T21:16:37.350Z,2.47
2022-10-16T21:19:05.781Z,2.37
2022-10-16T21:21:35.535Z,2.70
2022-10-16T21:24:03.641Z,2.77
2022-10-16T21:26:33.173Z,2.40
2022-10-16T21:29:03.892Z,2.13
2022-10-16T21:31:32.738Z,2.13
2022-10-16T21:34:01.297Z,2.50
2022-10-16T21:36:31.239Z,2.13
2022-10-16T21:39:02.125Z,2.03
2022-10-16T21:41:31.995Z,2.20
2022-10-16T21:44:00.405Z,2.10
2022-10-16T21:46:31.645Z,2.47
2022-10-16T21:49:01.575Z,1.73
2022-10-16T21:51:32.430Z,1.80
2022-10-16T21:54:01.134Z,1.67
2022-10-16T21:56:29.554Z,1.73
2022-10-16T21:58:59.111Z,1.97
2022-10-16T22:01:28.975Z,1.80
2022-10-16T22:03:57.220Z,1.90
2022-10-16T22:06:28.847Z,1.67
2022-10-16T22:08:59.552Z,2.20
2022-10-16T22:11:31.207Z,1.70
2022-10-16T22:14:00.560Z,2.20
2022-10-16T22:16:28.664Z,1.53
2022-10-16T22:18:57.978Z,2.20
2022-10-16T22:21:26.688Z,1.77
2022-10-16T22:23:55.019Z,1.60
2022-10-16T22:26:23.160Z,2.07
2022-10-16T22:28:51.860Z,1.40
2022-10-16T22:31:23.681Z,1.50
2022-10-16T22:33:55.533Z,1.60
2022-10-16T22:36:23.822Z,1.70
2022-10-16T22:38:51.956Z,2.20
2022-10-16T22:41:20.576Z,1.53
2022-10-16T22:43:50.195Z,1.80
2022-10-16T22:46:20.058Z,2.27
2022-10-16T22:48:49.536Z,1.67
2022-10-16T22:51:17.836Z,1.73
2022-10-16T22:53:46.998Z,2.07
2022-10-16T22:56:15.877Z,1.80
2022-10-16T22:58:44.534Z,1.57
2022-10-16T23:01:15.225Z,1.70
2022-10-16T23:03:43.377Z,1.80
2022-10-16T23:06:13.084Z,2.10
2022-10-16T23:08:41.131Z,1.90
2022-10-16T23:11:12.287Z,1.90
2022-10-16T23:13:45.005Z,1.73
2022-10-16T23:16:14.516Z,1.80
2022-10-16T23:18:43.004Z,1.53
2022-10-16T23:21:14.193Z,2.20
2022-10-16T23:23:43.266Z,1.73
2022-10-16T23:26:12.318Z,1.80
2022-10-16T23:28:40.921Z,1.63
2022-10-16T23:31:10.142Z,1.40
2022-10-16T23:33:39.537Z,1.80
2022-10-16T23:36:10.367Z,1.70
2022-10-16T23:38:40.083Z,1.40
2022-10-16T23:41:08.194Z,1.90
2022-10-16T23:43:36.548Z,1.40
2022-10-16T23:46:05.270Z,1.40
2022-10-16T23:48:33.402Z,1.80
2022-10-16T23:51:01.863Z,1.43
2022-10-16T23:53:29.824Z,1.70
2022-10-16T23:55:59.200Z,2.10
2022-10-16T23:58:27.437Z,1.23
